createdAt,value
2018-02-17T00:01:08.246Z,46.75
2018-02-17T00:03:34.186Z,46.91
2018-02-17T00:06:00.198Z,46.87
2018-02-17T00:08:26.140Z,46.72
2018-02-17T00:10:52.098Z,46.79
2018-02-17T00:13:18.114Z,46.80
2018-02-17T00:15:44.114Z,46.87
2018-02-17T00:18:10.041Z,47.04
2018-02-17T00:20:35.998Z,46.84
2018-02-17T00:23:01.979Z,46.97
2018-02-17T00:25:27.953Z,46.98
2018-02-17T00:27:53.903Z,46.87
2018-02-17T00:30:19.901Z,47.12
2018-02-17T00:32:45.880Z,47.08
2018-02-17T00:35:11.861Z,46.83
2018-02-17T00:37:37.845Z,46.82
2018-02-17T00:40:03.786Z,46.86
2018-02-17T00:42:29.741Z,46.80
2018-02-17T00:44:55.697Z,46.99
2018-02-17T00:47:21.651Z,46.81
2018-02-17T00:49:47.625Z,46.91
2018-02-17T00:52:13.570Z,46.79
2018-02-17T00:54:39.522Z,46.76
2018-02-17T00:57:05.471Z,46.56
2018-02-17T00:59:31.440Z,46.65
2018-02-17T01:01:57.409Z,46.81
2018-02-17T01:04:23.351Z,46.83
2018-02-17T01:06:49.315Z,46.73
2018-02-17T01:09:15.274Z,46.88
2018-02-17T01:11:41.254Z,46.81
2018-02-17T01:14:07.198Z,46.85
2018-02-17T01:16:33.158Z,46.84
2018-02-17T01:18:59.098Z,46.81
2018-02-17T01:21:25.070Z,46.87
2018-02-17T01:23:51.014Z,46.89
2018-02-17T01:26:16.959Z,46.82
2018-02-17T01:28:42.897Z,46.65
2018-02-17T01:31:08.858Z,47.01
2018-02-17T01:33:34.797Z,46.88
2018-02-17T01:36:00.750Z,46.84
2018-02-17T01:38:26.804Z,46.77
2018-02-17T01:40:52.749Z,46.67
2018-02-17T01:43:18.686Z,46.61
2018-02-17T01:45:44.681Z,46.47
2018-02-17T01:48:10.631Z,46.67
2018-02-17T01:50:36.596Z,46.67
2018-02-17T01:53:02.630Z,46.74
2018-02-17T01:55:28.586Z,46.88
2018-02-17T01:57:54.542Z,46.76
2018-02-17T02:00:20.548Z,46.65
2018-02-17T02:02:46.486Z,46.69
2018-02-17T02:05:12.434Z,46.75
2018-02-17T02:07:38.402Z,46.89
2018-02-17T02:10:04.337Z,46.89
2018-02-17T02:12:30.305Z,46.65
2018-02-17T02:14:56.436Z,46.66
2018-02-17T02:17:22.406Z,46.73
2018-02-17T02:19:48.352Z,46.71
2018-02-17T02:22:14.313Z,46.61
2018-02-17T02:24:40.253Z,46.82
2018-02-17T02:27:06.197Z,46.46
2018-02-17T02:29:32.162Z,46.82
2018-02-17T02:31:58.159Z,46.67
2018-02-17T02:34:24.139Z,46.74
2018-02-17T02:36:50.090Z,46.69
2018-02-17T02:39:16.026Z,46.73
2018-02-17T02:41:41.992Z,46.70
2018-02-17T02:44:07.943Z,46.76
2018-02-17T02:46:33.898Z,46.62
2018-02-17T02:48:59.863Z,46.65
2018-02-17T02:51:25.834Z,46.76
2018-02-17T02:53:51.907Z,46.80
2018-02-17T02:56:17.860Z,46.59
2018-02-17T02:58:43.827Z,46.61
2018-02-17T03:01:09.764Z,46.67
2018-02-17T03:03:35.760Z,46.67
2018-02-17T03:06:01.702Z,46.58
2018-02-17T03:08:27.677Z,46.60
2018-02-17T03:10:53.632Z,46.71
2018-02-17T03:13:19.598Z,46.66
2018-02-17T03:15:45.534Z,46.66
2018-02-17T03:18:11.494Z,46.57
2018-02-17T03:20:37.446Z,46.67
2018-02-17T03:23:03.398Z,46.72
2018-02-17T03:25:29.338Z,46.55
2018-02-17T03:27:55.307Z,46.59
2018-02-17T03:30:21.251Z,46.74
2018-02-17T03:32:47.197Z,46.65
2018-02-17T03:35:13.137Z,46.63
2018-02-17T03:37:39.084Z,46.48
2018-02-17T03:40:05.021Z,46.52
2018-02-17T03:42:30.967Z,46.53
2018-02-17T03:44:56.921Z,46.54
2018-02-17T03:47:22.862Z,46.52
2018-02-17T03:49:48.806Z,46.60
2018-02-17T03:52:14.770Z,46.42
2018-02-17T03:54:40.711Z,46.55
2018-02-17T03:57:06.686Z,46.42
2018-02-17T03:59:32.633Z,46.55
2018-02-17T04:01:58.705Z,46.49
2018-02-17T04:04:24.658Z,46.60
2018-02-17T04:06:50.590Z,46.43
2018-02-17T04:09:16.558Z,46.46
2018-02-17T04:11:42.550Z,46.59
2018-02-17T04:14:08.509Z,46.60
2018-02-17T04:16:34.485Z,46.26
2018-02-17T04:19:00.446Z,46.39
2018-02-17T04:21:26.388Z,46.18
2018-02-17T04:23:52.367Z,46.49
2018-02-17T04:26:18.325Z,46.38
2018-02-17T04:28:44.286Z,46.55
2018-02-17T04:31:10.232Z,46.36
2018-02-17T04:33:36.183Z,46.55
2018-02-17T04:36:02.146Z,46.24
2018-02-17T04:38:28.091Z,46.22
2018-02-17T04:40:54.058Z,46.39
2018-02-17T04:43:20.000Z,46.35
2018-02-17T04:45:46.014Z,46.42
2018-02-17T04:48:11.970Z,46.39
2018-02-17T04:50:37.909Z,46.56
2018-02-17T04:53:03.850Z,46.30
2018-02-17T04:55:29.812Z,46.33
2018-02-17T04:57:55.782Z,46.49
2018-02-17T05:00:21.758Z,46.39
2018-02-17T05:02:47.713Z,46.29
2018-02-17T05:05:13.655Z,46.32
2018-02-17T05:07:39.602Z,46.22
2018-02-17T05:10:05.553Z,46.32
2018-02-17T05:12:31.537Z,46.36
2018-02-17T05:14:57.499Z,46.26
2018-02-17T05:17:23.447Z,45.97
2018-02-17T05:19:49.427Z,46.23
2018-02-17T05:22:15.353Z,46.25
2018-02-17T05:24:41.324Z,46.40
2018-02-17T05:27:07.289Z,46.20
2018-02-17T05:29:33.333Z,46.32
2018-02-17T05:31:59.282Z,46.19
2018-02-17T05:34:25.219Z,46.41
2018-02-17T05:36:51.158Z,46.28
2018-02-17T05:39:17.132Z,46.32
2018-02-17T05:41:43.086Z,46.33
2018-02-17T05:44:09.031Z,46.43
2018-02-17T05:46:34.981Z,46.30
2018-02-17T05:49:00.929Z,46.40
2018-02-17T05:51:26.878Z,46.07
2018-02-17T05:53:52.830Z,46.10
2018-02-17T05:56:18.765Z,46.01
2018-02-17T05:58:44.729Z,45.99
2018-02-17T06:01:10.674Z,46.00
2018-02-17T06:03:36.649Z,46.02
2018-02-17T06:06:02.598Z,46.12
2018-02-17T06:08:28.550Z,46.06
2018-02-17T06:10:54.536Z,47.54
2018-02-17T06:13:20.500Z,46.45
2018-02-17T06:15:46.552Z,45.80
2018-02-17T06:18:12.495Z,45.68
2018-02-17T06:20:38.471Z,45.11
2018-02-17T06:23:04.426Z,45.05
2018-02-17T06:25:30.411Z,45.34
2018-02-17T06:27:56.376Z,45.32
2018-02-17T06:30:22.338Z,45.41
2018-02-17T06:32:48.286Z,45.31
2018-02-17T06:35:14.253Z,45.49
2018-02-17T06:37:40.198Z,45.39
2018-02-17T06:40:06.154Z,45.47
2018-02-17T06:42:32.098Z,45.27
2018-02-17T06:44:58.059Z,45.41
2018-02-17T06:47:24.031Z,45.43
2018-02-17T06:49:49.993Z,45.29
2018-02-17T06:52:15.953Z,45.37
2018-02-17T06:54:41.979Z,45.39
2018-02-17T06:57:07.944Z,45.32
2018-02-17T06:59:33.886Z,45.43
2018-02-17T07:01:59.844Z,45.12
2018-02-17T07:04:25.804Z,45.44
2018-02-17T07:06:51.739Z,45.62
2018-02-17T07:09:17.693Z,45.31
2018-02-17T07:11:43.636Z,45.41
2018-02-17T07:14:09.577Z,45.34
2018-02-17T07:16:35.546Z,45.35
2018-02-17T07:19:01.488Z,45.29
2018-02-17T07:21:27.482Z,45.31
2018-02-17T07:23:53.450Z,45.66
2018-02-17T07:26:19.412Z,45.46
2018-02-17T07:28:45.366Z,45.28
2018-02-17T07:31:11.319Z,45.54
2018-02-17T07:33:37.290Z,45.53
2018-02-17T07:36:03.222Z,45.47
2018-02-17T07:38:29.187Z,45.23
2018-02-17T07:40:55.197Z,45.54
2018-02-17T07:43:21.237Z,45.64
2018-02-17T07:45:47.329Z,45.87
2018-02-17T07:48:13.314Z,45.87
2018-02-17T07:50:39.302Z,45.91
2018-02-17T07:53:05.331Z,46.14
2018-02-17T07:55:31.409Z,46.21
2018-02-17T07:57:57.423Z,46.25
2018-02-17T08:00:23.381Z,46.35
2018-02-17T08:02:49.337Z,46.28
2018-02-17T08:05:15.312Z,46.67
2018-02-17T08:07:41.274Z,46.14
2018-02-17T08:10:07.205Z,45.66
2018-02-17T08:12:33.165Z,45.41
2018-02-17T08:14:59.202Z,45.64
2018-02-17T08:17:25.163Z,45.83
2018-02-17T08:19:51.131Z,46.06
2018-02-17T08:22:17.183Z,46.08
2018-02-17T08:24:43.119Z,46.04
2018-02-17T08:27:09.081Z,46.65
2018-02-17T08:29:35.058Z,46.66
2018-02-17T08:32:01.023Z,46.16
2018-02-17T08:34:26.970Z,46.02
2018-02-17T08:36:52.983Z,45.80
2018-02-17T08:39:18.947Z,46.39
2018-02-17T08:41:44.927Z,47.37
2018-02-17T08:44:10.977Z,46.90
2018-02-17T08:46:36.932Z,46.61
2018-02-17T08:49:02.870Z,46.78
2018-02-17T08:51:28.826Z,46.58
2018-02-17T08:53:54.798Z,46.79
2018-02-17T08:56:20.754Z,46.72
2018-02-17T08:58:46.765Z,46.81
2018-02-17T09:01:12.706Z,46.64
2018-02-17T09:03:38.667Z,46.97
2018-02-17T09:06:04.675Z,46.88
2018-02-17T09:08:30.644Z,46.82
2018-02-17T09:10:56.587Z,46.58
2018-02-17T09:13:22.588Z,46.50
2018-02-17T09:15:48.546Z,46.71
2018-02-17T09:18:14.490Z,46.46
2018-02-17T09:20:40.503Z,46.52
2018-02-17T09:23:06.505Z,45.91
2018-02-17T09:25:32.477Z,46.01
2018-02-17T09:27:58.422Z,45.99
2018-02-17T09:30:24.394Z,46.03
2018-02-17T09:32:50.347Z,46.23
2018-02-17T09:35:16.317Z,46.37
2018-02-17T09:37:42.297Z,46.44
2018-02-17T09:40:08.267Z,46.46
2018-02-17T09:42:34.221Z,46.47
2018-02-17T09:45:00.167Z,46.33
2018-02-17T09:47:26.138Z,46.53
2018-02-17T09:49:52.106Z,46.67
2018-02-17T09:52:18.041Z,46.63
2018-02-17T09:54:43.987Z,47.05
2018-02-17T09:57:09.967Z,46.83
2018-02-17T09:59:35.958Z,46.90
2018-02-17T10:02:01.917Z,46.80
2018-02-17T10:04:27.895Z,46.62
2018-02-17T10:06:53.850Z,46.67
2018-02-17T10:09:19.799Z,46.49
2018-02-17T10:11:45.788Z,46.68
2018-02-17T10:14:11.734Z,46.70
2018-02-17T10:16:37.707Z,46.50
2018-02-17T10:19:03.651Z,46.50
2018-02-17T10:21:29.618Z,46.43
2018-02-17T10:23:55.584Z,46.81
2018-02-17T10:26:21.544Z,46.74
2018-02-17T10:28:47.517Z,46.58
2018-02-17T10:31:13.470Z,46.66
2018-02-17T10:33:39.440Z,46.58
2018-02-17T10:36:05.401Z,46.53
2018-02-17T10:38:31.351Z,46.47
2018-02-17T10:40:57.330Z,46.70
2018-02-17T10:43:23.270Z,46.72
2018-02-17T10:45:49.226Z,46.54
2018-02-17T10:48:15.194Z,46.47
2018-02-17T10:50:41.141Z,46.74
2018-02-17T10:53:07.107Z,46.63
2018-02-17T10:55:33.057Z,46.49
2018-02-17T10:57:59.011Z,46.37
2018-02-17T11:00:24.999Z,46.43
2018-02-17T11:02:50.952Z,46.58
2018-02-17T11:05:16.895Z,46.70
2018-02-17T11:07:42.858Z,46.61
2018-02-17T11:10:08.797Z,46.55
2018-02-17T11:12:34.764Z,46.54
2018-02-17T11:15:00.742Z,46.74
2018-02-17T11:17:26.703Z,46.48
2018-02-17T11:19:52.667Z,46.46
2018-02-17T11:22:18.650Z,46.57
2018-02-17T11:24:44.631Z,46.51
2018-02-17T11:27:10.582Z,46.50
2018-02-17T11:29:36.540Z,46.39
2018-02-17T11:32:02.512Z,46.63
2018-02-17T11:34:28.461Z,46.55
2018-02-17T11:36:54.558Z,46.33
2018-02-17T11:39:20.509Z,46.54
2018-02-17T11:41:46.457Z,46.57
2018-02-17T11:44:12.415Z,46.63
2018-02-17T11:46:38.361Z,46.49
2018-02-17T11:49:04.313Z,46.58
2018-02-17T11:51:30.270Z,46.45
2018-02-17T11:53:56.226Z,46.45
2018-02-17T11:56:22.202Z,46.50
2018-02-17T11:58:48.136Z,46.30
2018-02-17T12:01:14.094Z,46.57
2018-02-17T12:03:40.062Z,46.68
2018-02-17T12:06:06.043Z,46.60
2018-02-17T12:08:31.993Z,46.55
2018-02-17T12:10:57.965Z,46.62
2018-02-17T12:13:23.916Z,46.65
2018-02-17T12:15:49.905Z,46.57
2018-02-17T12:18:15.850Z,46.41
2018-02-17T12:20:41.794Z,46.52
2018-02-17T12:23:07.783Z,46.37
2018-02-17T12:25:33.735Z,46.66
2018-02-17T12:27:59.809Z,46.58
2018-02-17T12:30:25.755Z,46.40
2018-02-17T12:32:51.698Z,46.44
2018-02-17T12:35:17.670Z,46.71
2018-02-17T12:37:43.615Z,45.50
2018-02-17T12:40:09.565Z,45.34
2018-02-17T12:42:35.501Z,46.30
2018-02-17T12:45:01.464Z,46.08
2018-02-17T12:47:27.398Z,46.16
2018-02-17T12:49:53.432Z,46.17
2018-02-17T12:52:19.346Z,45.44
2018-02-17T12:54:45.277Z,45.77
2018-02-17T12:57:11.245Z,46.01
2018-02-17T12:59:37.191Z,46.04
2018-02-17T13:02:03.190Z,46.01
2018-02-17T13:04:29.127Z,45.93
2018-02-17T13:06:55.070Z,46.16
2018-02-17T13:09:21.094Z,45.80
2018-02-17T13:11:48.086Z,46.28
2018-02-17T13:14:14.047Z,46.25
2018-02-17T13:16:40.005Z,46.43
2018-02-17T13:19:06.113Z,46.25
2018-02-17T13:21:32.144Z,46.46
2018-02-17T13:23:58.114Z,46.36
2018-02-17T13:26:24.058Z,46.53
2018-02-17T13:28:50.057Z,46.58
2018-02-17T13:31:16.002Z,46.46
2018-02-17T13:33:41.962Z,46.50
2018-02-17T13:36:07.910Z,47.01
2018-02-17T13:38:33.875Z,46.76
2018-02-17T13:40:59.838Z,46.56
2018-02-17T13:43:25.799Z,46.38
2018-02-17T13:45:51.787Z,46.25
2018-02-17T13:48:17.725Z,46.61
2018-02-17T13:50:43.740Z,46.37
2018-02-17T13:53:09.690Z,47.02
2018-02-17T13:55:35.658Z,46.59
2018-02-17T13:58:01.598Z,46.49
2018-02-17T14:00:27.588Z,46.42
2018-02-17T14:02:53.530Z,46.56
2018-02-17T14:05:19.488Z,46.50
2018-02-17T14:07:45.436Z,46.74
2018-02-17T14:10:11.382Z,46.70
2018-02-17T14:12:37.329Z,46.57
2018-02-17T14:15:03.336Z,46.78
2018-02-17T14:17:29.290Z,46.80
2018-02-17T14:19:55.226Z,46.81
2018-02-17T14:22:21.190Z,46.71
2018-02-17T14:24:47.146Z,46.69
2018-02-17T14:27:13.095Z,46.67
2018-02-17T14:29:39.093Z,46.76
2018-02-17T14:32:05.059Z,46.79
2018-02-17T14:34:31.012Z,47.01
2018-02-17T14:36:56.983Z,46.98
2018-02-17T14:39:22.973Z,47.07
2018-02-17T14:41:48.924Z,46.90
2018-02-17T14:44:14.880Z,47.07
2018-02-17T14:46:40.854Z,47.10
2018-02-17T14:49:06.799Z,47.23
2018-02-17T14:51:32.770Z,47.07
2018-02-17T14:53:58.758Z,47.28
2018-02-17T14:56:24.715Z,47.19
2018-02-17T14:58:50.673Z,47.25
2018-02-17T15:01:16.665Z,47.21
2018-02-17T15:03:42.608Z,47.24
2018-02-17T15:06:08.659Z,47.21
2018-02-17T15:08:34.601Z,47.25
2018-02-17T15:11:00.542Z,47.27
2018-02-17T15:13:26.485Z,47.25
2018-02-17T15:15:52.426Z,47.32
2018-02-17T15:18:18.396Z,47.32
2018-02-17T15:20:44.358Z,47.46
2018-02-17T15:23:10.322Z,47.61
2018-02-17T15:25:36.261Z,47.42
2018-02-17T15:28:02.227Z,47.16
2018-02-17T15:30:28.197Z,47.00
2018-02-17T15:32:54.158Z,46.92
2018-02-17T15:35:20.148Z,46.91
2018-02-17T15:37:46.082Z,47.14
2018-02-17T15:40:12.030Z,47.08
2018-02-17T15:42:37.974Z,47.14
2018-02-17T15:45:03.954Z,47.24
2018-02-17T15:47:29.923Z,47.02
2018-02-17T15:49:55.955Z,47.10
2018-02-17T15:52:21.898Z,47.06
2018-02-17T15:54:47.894Z,47.12
2018-02-17T15:57:13.846Z,47.14
2018-02-17T15:59:39.793Z,47.12
2018-02-17T16:02:05.770Z,47.15
2018-02-17T16:04:31.727Z,47.12
2018-02-17T16:06:57.686Z,46.78
2018-02-17T16:09:23.648Z,46.90
2018-02-17T16:11:49.618Z,47.06
2018-02-17T16:14:15.782Z,46.98
2018-02-17T16:16:41.769Z,46.93
2018-02-17T16:19:07.732Z,46.78
2018-02-17T16:21:33.678Z,46.79
2018-02-17T16:23:59.636Z,46.85
2018-02-17T16:26:25.577Z,46.75
2018-02-17T16:28:51.534Z,46.87
2018-02-17T16:31:17.474Z,46.91
2018-02-17T16:33:43.445Z,46.88
2018-02-17T16:36:09.430Z,46.90
2018-02-17T16:38:35.413Z,46.89
2018-02-17T16:41:01.420Z,46.70
2018-02-17T16:43:27.362Z,46.72
2018-02-17T16:45:53.330Z,47.09
2018-02-17T16:48:19.291Z,47.01
2018-02-17T16:50:45.268Z,46.74
2018-02-17T16:53:11.203Z,46.95
2018-02-17T16:55:37.163Z,46.70
2018-02-17T16:58:03.162Z,46.91
2018-02-17T17:00:29.097Z,46.84
2018-02-17T17:02:55.055Z,46.80
2018-02-17T17:05:21.006Z,46.90
2018-02-17T17:07:46.993Z,46.75
2018-02-17T17:10:12.946Z,46.64
2018-02-17T17:12:38.886Z,47.15
2018-02-17T17:15:04.846Z,47.36
2018-02-17T17:17:30.802Z,46.91
2018-02-17T17:19:56.743Z,46.63
2018-02-17T17:22:22.689Z,46.79
2018-02-17T17:24:48.649Z,46.45
2018-02-17T17:27:14.603Z,46.61
2018-02-17T17:29:40.577Z,46.71
2018-02-17T17:32:06.549Z,47.00
2018-02-17T17:34:32.495Z,46.86
2018-02-17T17:36:58.462Z,46.94
2018-02-17T17:39:24.427Z,46.95
2018-02-17T17:41:50.385Z,46.87
2018-02-17T17:44:16.352Z,46.94
2018-02-17T17:46:42.306Z,46.80
2018-02-17T17:49:08.246Z,46.71
2018-02-17T17:51:34.191Z,46.72
2018-02-17T17:54:00.144Z,46.86
2018-02-17T17:56:26.140Z,46.84
2018-02-17T17:58:52.099Z,46.94
2018-02-17T18:01:18.046Z,46.87
2018-02-17T18:03:44.002Z,46.70
2018-02-17T18:06:10.000Z,46.55
2018-02-17T18:08:35.959Z,47.12
2018-02-17T18:11:01.936Z,47.07
2018-02-17T18:13:27.907Z,47.07
2018-02-17T18:15:53.860Z,46.69
2018-02-17T18:18:19.822Z,46.79
2018-02-17T18:20:45.775Z,46.67
2018-02-17T18:23:11.763Z,46.63
2018-02-17T18:25:37.702Z,46.71
2018-02-17T18:28:03.658Z,46.47
2018-02-17T18:30:29.706Z,46.62
2018-02-17T18:32:55.671Z,46.54
2018-02-17T18:35:21.620Z,46.60
2018-02-17T18:37:47.563Z,46.43
2018-02-17T18:40:13.516Z,46.43
2018-02-17T18:42:39.466Z,46.31
2018-02-17T18:45:05.410Z,46.25
2018-02-17T18:47:31.399Z,46.37
2018-02-17T18:49:57.368Z,46.49
2018-02-17T18:52:23.317Z,46.45
2018-02-17T18:54:49.254Z,46.56
2018-02-17T18:57:15.214Z,46.81
2018-02-17T18:59:41.171Z,46.75
2018-02-17T19:02:07.182Z,46.76
2018-02-17T19:04:33.146Z,46.56
2018-02-17T19:06:59.110Z,46.63
2018-02-17T19:09:25.062Z,46.60
2018-02-17T19:11:51.019Z,46.54
2018-02-17T19:14:16.967Z,46.52
2018-02-17T19:16:43.971Z,46.63
2018-02-17T19:19:09.924Z,46.62
2018-02-17T19:21:35.879Z,46.66
2018-02-17T19:24:01.819Z,46.66
2018-02-17T19:26:27.868Z,46.58
2018-02-17T19:28:53.831Z,46.74
2018-02-17T19:31:19.790Z,46.79
2018-02-17T19:33:45.852Z,46.65
2018-02-17T19:36:11.807Z,46.76
2018-02-17T19:38:37.783Z,46.93
2018-02-17T19:41:03.856Z,46.73
2018-02-17T19:43:29.877Z,46.42
2018-02-17T19:45:55.811Z,46.37
2018-02-17T19:48:21.782Z,46.41
2018-02-17T19:50:47.747Z,46.26
2018-02-17T19:53:13.744Z,46.46
2018-02-17T19:55:39.706Z,46.56
2018-02-17T19:58:05.734Z,46.49
2018-02-17T20:00:31.683Z,46.35
2018-02-17T20:02:57.625Z,46.46
2018-02-17T20:05:23.582Z,46.67
2018-02-17T20:07:49.555Z,46.50
2018-02-17T20:10:15.544Z,46.63
2018-02-17T20:12:41.505Z,46.83
2018-02-17T20:15:07.496Z,46.93
2018-02-17T20:17:33.468Z,47.01
2018-02-17T20:19:59.431Z,47.00
2018-02-17T20:22:25.374Z,46.71
2018-02-17T20:24:51.383Z,46.72
2018-02-17T20:27:17.352Z,46.60
2018-02-17T20:29:43.319Z,46.53
2018-02-17T20:32:09.421Z,46.62
2018-02-17T20:34:35.382Z,46.65
2018-02-17T20:37:01.371Z,46.44
2018-02-17T20:39:27.417Z,46.48
2018-02-17T20:41:53.371Z,46.75
2018-02-17T20:44:19.326Z,46.88
2018-02-17T20:46:45.275Z,46.98
2018-02-17T20:49:11.237Z,47.09
2018-02-17T20:51:37.192Z,47.15
2018-02-17T20:54:03.385Z,47.14
2018-02-17T20:56:29.415Z,47.30
2018-02-17T20:58:55.390Z,47.27
2018-02-17T21:01:21.347Z,47.32
2018-02-17T21:03:47.291Z,47.26
2018-02-17T21:06:13.226Z,47.30
2018-02-17T21:08:39.181Z,47.23
2018-02-17T21:11:05.158Z,47.18
2018-02-17T21:13:31.134Z,47.15
2018-02-17T21:15:57.086Z,47.26
2018-02-17T21:18:23.038Z,47.38
2018-02-17T21:20:49.101Z,47.16
2018-02-17T21:23:15.102Z,47.18
2018-02-17T21:25:41.056Z,47.25
2018-02-17T21:28:06.993Z,47.24
2018-02-17T21:30:32.954Z,47.24
2018-02-17T21:32:58.907Z,47.27
2018-02-17T21:35:24.874Z,47.27
2018-02-17T21:37:50.823Z,47.23
2018-02-17T21:40:16.852Z,47.28
2018-02-17T21:42:42.808Z,47.83
2018-02-17T21:45:08.874Z,47.78
2018-02-17T21:47:34.854Z,47.65
2018-02-17T21:50:00.841Z,47.66
2018-02-17T21:52:26.807Z,47.63
2018-02-17T21:54:52.767Z,47.70
2018-02-17T21:57:18.715Z,47.69
2018-02-17T21:59:44.730Z,47.84
2018-02-17T22:02:10.693Z,47.71
2018-02-17T22:04:36.661Z,47.60
2018-02-17T22:07:02.644Z,47.84
2018-02-17T22:09:28.585Z,47.77
2018-02-17T22:11:54.520Z,47.81
2018-02-17T22:14:20.515Z,47.87
2018-02-17T22:16:46.429Z,47.78
2018-02-17T22:19:12.386Z,47.70
2018-02-17T22:21:38.338Z,47.82
2018-02-17T22:24:04.282Z,47.86
2018-02-17T22:26:30.235Z,47.79
2018-02-17T22:28:56.207Z,47.93
2018-02-17T22:31:22.166Z,47.89
2018-02-17T22:33:48.117Z,47.96
2018-02-17T22:36:14.073Z,48.07
2018-02-17T22:38:40.038Z,47.91
2018-02-17T22:41:05.982Z,47.89
2018-02-17T22:43:31.953Z,47.99
2018-02-17T22:45:57.908Z,47.94
2018-02-17T22:48:23.847Z,48.00
2018-02-17T22:50:49.797Z,48.08
2018-02-17T22:53:15.748Z,48.14
2018-02-17T22:55:41.710Z,48.14
2018-02-17T22:58:07.661Z,48.10
2018-02-17T23:00:33.614Z,48.20
2018-02-17T23:02:59.595Z,48.17
2018-02-17T23:05:25.554Z,48.08
2018-02-17T23:07:51.524Z,48.26
2018-02-17T23:10:17.470Z,48.13
2018-02-17T23:12:43.433Z,48.10
2018-02-17T23:15:09.377Z,48.37
2018-02-17T23:17:35.334Z,48.36
2018-02-17T23:20:01.378Z,48.31
2018-02-17T23:22:27.330Z,48.38
2018-02-17T23:24:53.272Z,48.29
2018-02-17T23:27:19.252Z,48.26
2018-02-17T23:29:45.227Z,47.87
2018-02-17T23:32:11.175Z,48.17
2018-02-17T23:34:37.209Z,48.17
2018-02-17T23:37:03.175Z,48.28
2018-02-17T23:39:29.202Z,48.22
2018-02-17T23:41:55.131Z,48.31
2018-02-17T23:44:21.111Z,48.20
2018-02-17T23:46:47.058Z,48.21
2018-02-17T23:49:13.020Z,48.18
2018-02-17T23:51:38.994Z,48.36
2018-02-17T23:54:04.955Z,48.28
2018-02-17T23:56:30.910Z,48.13
2018-02-17T23:58:56.894Z,48.19
